createdAt,value
2017-06-18T00:01:55.581Z,15.30
2017-06-18T00:04:23.058Z,14.57
2017-06-18T00:06:50.513Z,18.97
2017-06-18T00:09:17.985Z,13.07
2017-06-18T00:11:45.437Z,14.53
2017-06-18T00:14:12.905Z,13.93
2017-06-18T00:16:40.369Z,12.63
2017-06-18T00:19:07.842Z,12.57
2017-06-18T00:21:35.302Z,14.57
2017-06-18T00:24:02.770Z,15.60
2017-06-18T00:26:30.221Z,14.03
2017-06-18T00:28:57.709Z,15.37
2017-06-18T00:31:25.169Z,19.80
2017-06-18T00:33:52.626Z,15.80
2017-06-18T00:36:20.097Z,24.20
2017-06-18T00:38:47.553Z,17.83
2017-06-18T00:41:15.025Z,15.73
2017-06-18T00:43:42.489Z,19.00
2017-06-18T00:46:09.962Z,18.70
2017-06-18T00:48:38.189Z,17.70
2017-06-18T00:51:05.657Z,14.30
2017-06-18T00:53:33.125Z,15.90
2017-06-18T00:56:00.597Z,17.83
2017-06-18T00:58:28.054Z,21.10
2017-06-18T01:00:55.531Z,18.87
2017-06-18T01:03:22.985Z,16.30
2017-06-18T01:05:51.211Z,17.33
2017-06-18T01:08:18.677Z,17.87
2017-06-18T01:10:46.133Z,15.33
2017-06-18T01:13:13.605Z,14.53
2017-06-18T01:15:41.068Z,15.20
2017-06-18T01:18:08.542Z,17.43
2017-06-18T01:20:35.997Z,14.30
2017-06-18T01:23:03.461Z,18.07
2017-06-18T01:25:30.918Z,15.57
2017-06-18T01:27:58.382Z,15.00
2017-06-18T01:30:26.605Z,14.23
2017-06-18T01:32:54.073Z,18.07
2017-06-18T01:35:21.529Z,19.40
2017-06-18T01:37:49.013Z,17.47
2017-06-18T01:40:16.465Z,18.00
2017-06-18T01:42:43.929Z,15.27
2017-06-18T01:45:11.393Z,15.10
2017-06-18T01:47:38.850Z,19.30
2017-06-18T01:50:06.327Z,17.20
2017-06-18T01:52:33.786Z,17.27
2017-06-18T01:55:01.265Z,19.70
2017-06-18T01:57:28.727Z,18.30
2017-06-18T01:59:56.199Z,18.13
2017-06-18T02:02:23.661Z,16.43
2017-06-18T02:04:51.129Z,16.20
2017-06-18T02:07:18.589Z,17.47
2017-06-18T02:09:46.106Z,16.67
2017-06-18T02:12:13.553Z,16.80
2017-06-18T02:14:41.010Z,17.10
2017-06-18T02:17:08.477Z,20.73
2017-06-18T02:19:35.934Z,18.40
2017-06-18T02:22:03.406Z,16.80
2017-06-18T02:24:30.853Z,21.20
2017-06-18T02:26:58.329Z,14.70
2017-06-18T02:29:25.785Z,18.30
2017-06-18T02:31:53.257Z,14.10
2017-06-18T02:34:20.720Z,15.47
2017-06-18T02:36:48.192Z,16.00
2017-06-18T02:39:15.650Z,16.33
2017-06-18T02:41:43.908Z,17.43
2017-06-18T02:44:11.368Z,15.10
2017-06-18T02:46:38.825Z,16.57
2017-06-18T02:49:06.294Z,13.97
2017-06-18T02:51:33.758Z,15.03
2017-06-18T02:54:01.986Z,14.70
2017-06-18T02:56:29.441Z,17.00
2017-06-18T02:58:56.913Z,17.40
2017-06-18T03:01:24.380Z,17.07
2017-06-18T03:03:51.851Z,16.50
2017-06-18T03:06:19.305Z,16.10
2017-06-18T03:08:46.779Z,17.93
2017-06-18T03:11:15.006Z,21.80
2017-06-18T03:13:42.490Z,16.90
2017-06-18T03:16:09.954Z,17.90
2017-06-18T03:18:38.182Z,18.70
2017-06-18T03:21:11.395Z,22.70
2017-06-18T03:23:44.465Z,17.40
2017-06-18T03:26:11.941Z,19.23
2017-06-18T03:28:39.397Z,20.60
2017-06-18T03:31:06.869Z,14.00
2017-06-18T03:33:34.328Z,20.93
2017-06-18T03:36:01.801Z,15.80
2017-06-18T03:38:29.264Z,16.43
2017-06-18T03:40:56.735Z,17.23
2017-06-18T03:43:24.189Z,16.10
2017-06-18T03:45:51.666Z,16.17
2017-06-18T03:48:19.122Z,18.10
2017-06-18T03:50:46.629Z,15.57
2017-06-18T03:53:14.081Z,15.23
2017-06-18T03:55:41.542Z,17.17
2017-06-18T03:58:09.009Z,17.60
2017-06-18T04:00:37.232Z,15.43
2017-06-18T04:03:04.701Z,20.00
2017-06-18T04:05:32.158Z,18.80
2017-06-18T04:07:59.629Z,15.07
2017-06-18T04:10:27.085Z,15.77
2017-06-18T04:12:54.546Z,14.57
2017-06-18T04:15:22.005Z,16.50
2017-06-18T04:17:49.477Z,20.53
2017-06-18T04:20:16.934Z,17.17
2017-06-18T04:22:44.406Z,17.70
2017-06-18T04:25:11.869Z,19.37
2017-06-18T04:27:39.345Z,17.93
2017-06-18T04:30:06.797Z,19.10
2017-06-18T04:32:34.284Z,18.87
2017-06-18T04:35:01.734Z,19.87
2017-06-18T04:37:29.194Z,22.57
2017-06-18T04:39:56.657Z,17.03
2017-06-18T04:42:24.113Z,17.00
2017-06-18T04:44:51.584Z,15.63
2017-06-18T04:47:19.041Z,16.37
2017-06-18T04:49:46.516Z,16.53
2017-06-18T04:52:13.977Z,16.40
2017-06-18T04:54:41.450Z,15.10
2017-06-18T04:57:09.674Z,17.80
2017-06-18T04:59:37.166Z,22.70
2017-06-18T05:02:04.613Z,22.30
2017-06-18T05:04:32.069Z,19.00
2017-06-18T05:06:59.541Z,22.53
2017-06-18T05:09:27.005Z,20.83
2017-06-18T05:11:55.257Z,21.50
2017-06-18T05:14:22.713Z,20.37
2017-06-18T05:16:50.189Z,17.37
2017-06-18T05:19:17.638Z,17.47
2017-06-18T05:21:45.113Z,23.23
2017-06-18T05:24:12.571Z,23.90
2017-06-18T05:26:40.043Z,19.00
2017-06-18T05:29:07.502Z,19.20
2017-06-18T05:31:34.953Z,25.03
2017-06-18T05:34:02.421Z,19.87
2017-06-18T05:36:29.881Z,17.80
2017-06-18T05:38:57.348Z,21.60
2017-06-18T05:41:24.814Z,25.23
2017-06-18T05:43:52.285Z,20.33
2017-06-18T05:46:19.745Z,17.20
2017-06-18T05:48:47.217Z,20.10
2017-06-18T05:51:14.677Z,25.50
2017-06-18T05:53:42.151Z,21.97
2017-06-18T05:56:09.614Z,16.70
2017-06-18T05:58:37.853Z,18.57
2017-06-18T06:01:05.318Z,21.70
2017-06-18T06:03:32.785Z,18.83
2017-06-18T06:06:00.250Z,19.50
2017-06-18T06:08:27.713Z,19.13
2017-06-18T06:10:55.179Z,17.50
2017-06-18T06:13:23.405Z,18.87
2017-06-18T06:15:50.866Z,18.80
2017-06-18T06:18:18.334Z,21.03
2017-06-18T06:20:45.798Z,17.07
2017-06-18T06:23:13.259Z,22.30
2017-06-18T06:25:40.725Z,18.03
2017-06-18T06:28:08.177Z,17.67
2017-06-18T06:30:35.645Z,25.80
2017-06-18T06:33:03.874Z,15.37
2017-06-18T06:35:31.346Z,16.97
2017-06-18T06:37:58.797Z,17.70
2017-06-18T06:40:26.262Z,18.20
2017-06-18T06:42:53.714Z,14.67
2017-06-18T06:45:21.189Z,17.67
2017-06-18T06:47:48.651Z,17.23
2017-06-18T06:50:16.121Z,13.47
2017-06-18T06:52:44.342Z,18.70
2017-06-18T06:55:11.822Z,15.57
2017-06-18T06:57:39.277Z,14.23
2017-06-18T07:00:06.749Z,13.20
2017-06-18T07:02:34.215Z,18.63
2017-06-18T07:05:01.686Z,13.97
2017-06-18T07:07:29.145Z,12.93
2017-06-18T07:09:57.374Z,14.23
2017-06-18T07:12:24.850Z,18.23
2017-06-18T07:14:52.305Z,15.13
2017-06-18T07:17:19.776Z,12.90
2017-06-18T07:19:47.237Z,13.00
2017-06-18T07:22:14.710Z,16.23
2017-06-18T07:24:42.157Z,12.90
2017-06-18T07:27:10.406Z,11.77
2017-06-18T07:29:37.866Z,14.00
2017-06-18T07:32:05.353Z,13.77
2017-06-18T07:34:33.573Z,12.63
2017-06-18T07:37:01.029Z,12.37
2017-06-18T07:39:28.501Z,11.30
2017-06-18T07:41:55.961Z,12.13
2017-06-18T07:44:23.435Z,14.77
2017-06-18T07:46:50.890Z,8.87
2017-06-18T07:49:18.366Z,9.13
2017-06-18T07:51:45.813Z,8.60
2017-06-18T07:54:14.062Z,8.83
2017-06-18T07:56:41.522Z,7.80
2017-06-18T07:59:08.985Z,12.13
2017-06-18T08:01:36.448Z,8.20
2017-06-18T08:04:03.922Z,6.73
2017-06-18T08:06:31.363Z,6.60
2017-06-18T08:08:58.813Z,7.33
2017-06-18T08:11:26.270Z,7.87
2017-06-18T08:13:53.718Z,8.23
2017-06-18T08:16:21.189Z,10.20
2017-06-18T08:18:48.656Z,28.40
2017-06-18T08:21:16.128Z,5.60
2017-06-18T08:23:44.345Z,5.80
2017-06-18T08:26:11.810Z,5.33
2017-06-18T08:28:39.276Z,5.43
2017-06-18T08:31:06.747Z,4.10
2017-06-18T08:33:34.194Z,4.60
2017-06-18T08:36:01.673Z,3.87
2017-06-18T08:38:29.121Z,6.43
2017-06-18T08:40:56.569Z,5.23
2017-06-18T08:43:24.037Z,4.30
2017-06-18T08:45:51.485Z,3.30
2017-06-18T08:48:18.952Z,2.30
2017-06-18T08:50:46.404Z,4.43
2017-06-18T08:53:13.861Z,1.73
2017-06-18T08:55:41.309Z,4.27
2017-06-18T08:58:08.777Z,2.63
2017-06-18T09:00:36.225Z,2.73
2017-06-18T09:03:03.693Z,2.47
2017-06-18T09:05:31.158Z,3.63
2017-06-18T09:07:58.634Z,2.57
2017-06-18T09:10:26.845Z,2.60
2017-06-18T09:12:54.334Z,7.20
2017-06-18T09:15:21.785Z,5.03
2017-06-18T09:17:49.245Z,4.60
2017-06-18T09:20:16.698Z,5.80
2017-06-18T09:22:44.145Z,5.40
2017-06-18T09:25:11.606Z,4.93
2017-06-18T09:27:39.057Z,4.40
2017-06-18T09:30:06.522Z,4.10
2017-06-18T09:32:33.984Z,6.10
2017-06-18T09:35:01.457Z,5.87
2017-06-18T09:37:28.898Z,3.93
2017-06-18T09:39:56.358Z,4.40
2017-06-18T09:42:23.806Z,4.90
2017-06-18T09:44:51.277Z,4.50
2017-06-18T09:47:18.741Z,10.17
2017-06-18T09:49:46.197Z,7.53
2017-06-18T09:52:13.661Z,6.40
2017-06-18T09:54:41.118Z,5.03
2017-06-18T09:57:08.574Z,4.50
2017-06-18T09:59:36.795Z,4.80
2017-06-18T10:02:04.263Z,4.53
2017-06-18T10:04:31.713Z,4.47
2017-06-18T10:06:59.173Z,4.17
2017-06-18T10:09:26.617Z,3.87
2017-06-18T10:11:54.093Z,3.60
2017-06-18T10:14:21.551Z,3.10
2017-06-18T10:16:49.022Z,2.97
2017-06-18T10:19:16.487Z,5.20
2017-06-18T10:21:49.691Z,2.80
2017-06-18T10:24:17.156Z,2.83
2017-06-18T10:26:44.597Z,2.13
2017-06-18T10:29:12.062Z,3.00
2017-06-18T10:31:39.505Z,2.07
2017-06-18T10:34:06.969Z,2.33
2017-06-18T10:36:34.421Z,2.37
2017-06-18T10:39:01.889Z,2.53
2017-06-18T10:41:29.329Z,3.33
2017-06-18T10:43:56.793Z,2.90
2017-06-18T10:46:24.243Z,3.40
2017-06-18T10:48:51.705Z,2.33
2017-06-18T10:51:19.153Z,2.03
2017-06-18T10:53:46.622Z,2.30
2017-06-18T10:56:14.070Z,2.43
2017-06-18T10:58:41.518Z,2.07
2017-06-18T11:01:08.987Z,2.50
2017-06-18T11:03:36.441Z,2.30
2017-06-18T11:06:03.901Z,2.80
2017-06-18T11:09:09.322Z,2.67
2017-06-18T11:11:36.785Z,2.53
2017-06-18T11:14:04.246Z,2.40
2017-06-18T11:16:31.698Z,2.70
2017-06-18T11:18:59.149Z,2.53
2017-06-18T11:21:26.611Z,1.97
2017-06-18T11:23:54.066Z,2.20
2017-06-18T11:26:21.530Z,2.33
2017-06-18T11:28:48.991Z,1.80
2017-06-18T11:31:16.464Z,2.57
2017-06-18T11:33:43.913Z,2.47
2017-06-18T11:36:11.373Z,2.20
2017-06-18T11:38:38.830Z,2.00
2017-06-18T11:41:06.291Z,2.27
2017-06-18T11:43:33.733Z,2.30
2017-06-18T11:46:01.205Z,3.60
2017-06-18T11:48:28.659Z,1.77
2017-06-18T11:50:56.103Z,2.03
2017-06-18T11:53:23.565Z,3.10
2017-06-18T11:55:51.022Z,2.03
2017-06-18T11:58:18.489Z,2.10
2017-06-18T12:00:45.937Z,2.00
2017-06-18T12:03:13.409Z,2.50
2017-06-18T12:05:40.876Z,2.20
2017-06-18T12:08:08.343Z,1.97
2017-06-18T12:10:36.562Z,1.70
2017-06-18T12:13:04.042Z,2.63
2017-06-18T12:15:31.506Z,2.03
2017-06-18T12:17:58.977Z,3.73
2017-06-18T12:20:26.437Z,2.50
2017-06-18T12:22:53.921Z,3.40
2017-06-18T12:25:21.366Z,2.30
2017-06-18T12:27:49.587Z,2.43
2017-06-18T12:30:17.055Z,2.17
2017-06-18T12:32:44.510Z,2.50
2017-06-18T12:35:11.965Z,2.37
2017-06-18T12:37:39.418Z,2.00
2017-06-18T12:40:06.881Z,2.20
2017-06-18T12:42:34.330Z,3.20
2017-06-18T12:45:01.801Z,2.00
2017-06-18T12:47:29.254Z,2.70
2017-06-18T12:49:56.717Z,2.30
2017-06-18T12:52:24.161Z,2.20
2017-06-18T12:54:51.645Z,2.70
2017-06-18T12:57:19.089Z,2.60
2017-06-18T12:59:46.545Z,2.37
2017-06-18T13:02:14.005Z,2.10
2017-06-18T13:04:41.457Z,2.33
2017-06-18T13:07:08.919Z,1.97
2017-06-18T13:09:36.368Z,2.20
2017-06-18T13:12:03.825Z,2.27
2017-06-18T13:14:31.270Z,2.13
2017-06-18T13:16:58.746Z,1.70
2017-06-18T13:19:26.213Z,2.60
2017-06-18T13:21:53.678Z,2.47
2017-06-18T13:24:21.122Z,2.00
2017-06-18T13:26:48.589Z,1.77
2017-06-18T13:29:16.040Z,4.27
2017-06-18T13:31:43.490Z,2.30
2017-06-18T13:34:10.962Z,1.80
2017-06-18T13:36:38.418Z,2.10
2017-06-18T13:39:05.895Z,2.40
2017-06-18T13:41:34.121Z,2.03
2017-06-18T13:44:01.590Z,2.13
2017-06-18T13:46:29.050Z,2.00
2017-06-18T13:48:56.509Z,1.97
2017-06-18T13:51:23.961Z,1.97
2017-06-18T13:53:51.429Z,2.40
2017-06-18T13:56:18.877Z,2.23
2017-06-18T13:58:46.341Z,2.60
2017-06-18T14:01:13.802Z,4.43
2017-06-18T14:03:41.263Z,2.10
2017-06-18T14:06:08.718Z,6.20
2017-06-18T14:08:36.181Z,1.50
2017-06-18T14:11:03.627Z,3.97
2017-06-18T14:13:31.073Z,2.23
2017-06-18T14:15:58.550Z,1.80
2017-06-18T14:18:26.001Z,2.90
2017-06-18T14:20:53.463Z,2.10
2017-06-18T14:23:20.926Z,2.30
2017-06-18T14:25:48.388Z,2.33
2017-06-18T14:28:16.613Z,2.50
2017-06-18T14:30:44.094Z,1.80
2017-06-18T14:33:31.540Z,1.90
2017-06-18T14:35:59.009Z,1.80
2017-06-18T14:38:27.230Z,2.10
2017-06-18T14:40:54.685Z,3.13
2017-06-18T14:43:22.141Z,2.07
2017-06-18T14:45:49.617Z,1.93
2017-06-18T14:48:17.074Z,4.83
2017-06-18T14:50:44.535Z,1.80
2017-06-18T14:53:12.009Z,1.70
2017-06-18T14:55:39.458Z,2.03
2017-06-18T14:58:06.917Z,4.63
2017-06-18T15:00:40.048Z,3.00
2017-06-18T15:03:07.516Z,4.67
2017-06-18T15:05:34.957Z,2.77
2017-06-18T15:08:02.417Z,2.30
2017-06-18T15:10:29.876Z,1.60
2017-06-18T15:12:57.341Z,3.50
2017-06-18T15:15:24.790Z,2.50
2017-06-18T15:17:52.263Z,1.67
2017-06-18T15:20:19.727Z,3.00
2017-06-18T15:22:47.184Z,1.67
2017-06-18T15:25:14.641Z,3.10
2017-06-18T15:27:42.098Z,3.30
2017-06-18T15:30:09.565Z,2.10
2017-06-18T15:32:37.010Z,2.07
2017-06-18T15:35:04.482Z,1.90
2017-06-18T15:37:31.930Z,2.40
2017-06-18T15:39:59.405Z,6.80
2017-06-18T15:42:26.840Z,4.37
2017-06-18T15:44:54.303Z,4.67
2017-06-18T15:47:21.758Z,2.53
2017-06-18T15:49:49.225Z,2.47
2017-06-18T15:52:16.673Z,2.20
2017-06-18T15:54:44.154Z,2.13
2017-06-18T15:57:11.611Z,2.17
2017-06-18T15:59:46.386Z,3.57
2017-06-18T16:02:13.836Z,2.13
2017-06-18T16:04:42.049Z,2.00
2017-06-18T16:07:09.511Z,2.40
2017-06-18T16:09:36.963Z,2.10
2017-06-18T16:12:04.426Z,2.97
2017-06-18T16:14:31.866Z,2.50
2017-06-18T16:16:59.329Z,2.40
2017-06-18T16:19:26.792Z,2.07
2017-06-18T16:21:54.253Z,2.10
2017-06-18T16:27:28.509Z,2.77
2017-06-18T16:29:55.974Z,5.30
2017-06-18T16:32:23.434Z,5.00
2017-06-18T16:34:50.885Z,4.03
2017-06-18T16:37:18.355Z,2.90
2017-06-18T16:39:46.588Z,4.60
2017-06-18T16:42:14.033Z,5.47
2017-06-18T16:44:41.497Z,4.30
2017-06-18T16:47:08.953Z,3.83
2017-06-18T16:49:36.414Z,4.33
2017-06-18T16:52:03.862Z,3.87
2017-06-18T16:54:31.327Z,2.70
2017-06-18T17:02:48.629Z,2.50
2017-06-18T17:05:16.866Z,3.03
2017-06-18T17:07:44.331Z,2.77
2017-06-18T17:10:35.175Z,2.40
2017-06-18T17:13:03.389Z,2.70
2017-06-18T17:15:30.849Z,2.60
2017-06-18T17:17:58.303Z,3.10
2017-06-18T17:20:25.760Z,2.10
2017-06-18T17:22:53.226Z,2.67
2017-06-18T17:25:20.705Z,2.70
2017-06-18T17:27:48.385Z,2.30
2017-06-18T17:30:15.856Z,2.33
2017-06-18T17:32:44.073Z,2.20
2017-06-18T17:35:11.538Z,2.37
2017-06-18T17:37:38.999Z,2.50
2017-06-18T17:40:06.785Z,2.70
2017-06-18T17:42:53.377Z,2.50
2017-06-18T17:45:20.844Z,2.40
2017-06-18T17:47:48.289Z,2.30
2017-06-18T17:50:15.749Z,2.43
2017-06-18T17:52:43.215Z,2.57
2017-06-18T17:55:10.661Z,2.90
2017-06-18T17:57:38.125Z,3.10
2017-06-18T18:00:05.573Z,2.73
2017-06-18T18:02:33.045Z,2.67
2017-06-18T18:08:07.381Z,3.30
2017-06-18T18:10:34.826Z,3.00
2017-06-18T18:13:02.285Z,3.00
2017-06-18T18:15:29.737Z,3.00
2017-06-18T18:17:57.197Z,2.83
2017-06-18T18:20:24.645Z,2.70
2017-06-18T18:22:52.105Z,2.70
2017-06-18T18:25:19.553Z,2.30
2017-06-18T18:27:47.025Z,3.00
2017-06-18T18:30:14.481Z,2.50
2017-06-18T18:32:41.941Z,2.60
2017-06-18T18:35:09.401Z,2.70
2017-06-18T18:37:36.873Z,2.30
2017-06-18T18:40:04.339Z,2.53
2017-06-18T18:42:31.781Z,4.30
2017-06-18T18:44:59.241Z,2.60
2017-06-18T18:47:26.693Z,2.23
2017-06-18T18:49:54.185Z,3.00
2017-06-18T18:52:21.626Z,3.60
2017-06-18T18:54:49.861Z,3.13
2017-06-18T18:57:17.309Z,3.03
2017-06-18T18:59:44.777Z,5.10
2017-06-18T19:02:12.229Z,2.67
2017-06-18T19:04:39.698Z,3.10
2017-06-18T19:07:07.173Z,3.03
2017-06-18T19:09:34.632Z,2.33
2017-06-18T19:12:02.077Z,2.37
2017-06-18T19:14:29.541Z,2.70
2017-06-18T19:16:56.990Z,3.10
2017-06-18T19:19:24.442Z,3.10
2017-06-18T19:22:05.219Z,2.87
2017-06-18T19:24:32.913Z,3.23
2017-06-18T19:27:01.142Z,3.70
2017-06-18T19:29:28.597Z,3.20
2017-06-18T19:31:56.061Z,3.10
2017-06-18T19:34:23.522Z,3.13
2017-06-18T19:36:50.983Z,3.90
2017-06-18T19:39:18.425Z,3.17
2017-06-18T19:41:45.891Z,3.40
2017-06-18T19:44:13.342Z,5.50
2017-06-18T19:46:40.806Z,3.13
2017-06-18T19:49:08.262Z,4.03
2017-06-18T19:51:35.722Z,3.03
2017-06-18T19:54:03.198Z,3.83
2017-06-18T19:56:30.711Z,4.00
2017-06-18T19:58:58.166Z,3.97
2017-06-18T20:01:25.618Z,4.10
2017-06-18T20:03:53.081Z,4.07
2017-06-18T20:06:20.532Z,5.20
2017-06-18T20:08:47.994Z,4.10
2017-06-18T20:11:15.446Z,6.73
2017-06-18T20:13:42.909Z,3.80
2017-06-18T20:16:10.374Z,4.43
2017-06-18T20:18:37.821Z,4.17
2017-06-18T20:21:05.293Z,3.83
2017-06-18T20:23:32.742Z,3.90
2017-06-18T20:26:00.202Z,5.73
2017-06-18T20:28:27.649Z,5.30
2017-06-18T20:30:55.110Z,4.23
2017-06-18T20:33:22.567Z,4.00
2017-06-18T20:35:50.026Z,3.80
2017-06-18T20:38:17.491Z,6.00
2017-06-18T20:40:44.963Z,8.00
2017-06-18T20:43:12.417Z,3.67
2017-06-18T20:45:39.873Z,4.33
2017-06-18T20:48:07.329Z,4.10
2017-06-18T20:50:34.786Z,4.30
2017-06-18T20:53:02.249Z,5.80
2017-06-18T20:55:29.705Z,3.60
2017-06-18T20:57:57.177Z,4.83
2017-06-18T21:00:24.642Z,4.47
2017-06-18T21:02:52.094Z,4.57
2017-06-18T21:05:19.542Z,5.37
2017-06-18T21:07:47.009Z,4.70
2017-06-18T21:10:14.461Z,5.93
2017-06-18T21:12:41.929Z,4.60
2017-06-18T21:15:09.385Z,4.87
2017-06-18T21:17:36.858Z,4.57
2017-06-18T21:20:05.069Z,4.50
2017-06-18T21:22:32.530Z,3.90
2017-06-18T21:24:59.995Z,4.10
2017-06-18T21:27:27.449Z,4.20
2017-06-18T21:29:54.905Z,7.20
2017-06-18T21:32:22.389Z,3.60
2017-06-18T21:34:49.851Z,4.10
2017-06-18T21:37:17.306Z,3.57
2017-06-18T21:39:44.761Z,5.63
2017-06-18T21:42:12.210Z,3.57
2017-06-18T21:44:39.681Z,4.17
2017-06-18T21:47:07.134Z,4.00
2017-06-18T21:49:34.589Z,4.33
2017-06-18T21:52:02.042Z,3.80
2017-06-18T21:54:29.486Z,5.57
2017-06-18T21:56:56.954Z,3.87
2017-06-18T21:59:24.407Z,4.40
2017-06-18T22:01:51.882Z,4.83
2017-06-18T22:04:19.324Z,4.93
2017-06-18T22:06:46.781Z,3.90
2017-06-18T22:09:14.226Z,7.97
2017-06-18T22:11:41.701Z,4.63
2017-06-18T22:14:09.153Z,4.60
2017-06-18T22:16:36.629Z,4.40
2017-06-18T22:19:04.074Z,4.13
2017-06-18T22:21:31.530Z,4.73
2017-06-18T22:23:58.981Z,4.33
2017-06-18T22:26:26.465Z,4.77
2017-06-18T22:28:53.909Z,4.97
2017-06-18T22:31:21.364Z,5.50
2017-06-18T22:33:48.825Z,4.30
2017-06-18T22:36:16.292Z,4.90
2017-06-18T22:38:44.526Z,3.93
2017-06-18T22:41:11.973Z,4.77
2017-06-18T22:43:39.445Z,4.10
2017-06-18T22:46:06.911Z,3.70
2017-06-18T22:48:34.383Z,4.27
2017-06-18T22:51:01.831Z,4.50
2017-06-18T22:53:29.286Z,5.40
2017-06-18T22:55:56.738Z,4.50
2017-06-18T22:58:24.198Z,5.77
2017-06-18T23:00:51.649Z,4.37
2017-06-18T23:03:19.137Z,4.70
2017-06-18T23:05:47.353Z,6.10
2017-06-18T23:08:14.803Z,4.77
2017-06-18T23:10:42.270Z,4.20
2017-06-18T23:13:09.737Z,4.17
2017-06-18T23:15:37.209Z,4.20
2017-06-18T23:18:04.665Z,4.07
2017-06-18T23:20:32.137Z,3.40
2017-06-18T23:22:59.590Z,4.37
2017-06-18T23:25:27.054Z,3.83
2017-06-18T23:27:54.501Z,5.17
2017-06-18T23:30:21.973Z,4.97
2017-06-18T23:32:49.422Z,3.53
2017-06-18T23:35:16.887Z,4.40
2017-06-18T23:37:44.329Z,4.63
2017-06-18T23:40:11.786Z,3.73
2017-06-18T23:42:39.253Z,5.53
2017-06-18T23:45:06.705Z,4.10
2017-06-18T23:47:34.169Z,4.43
2017-06-18T23:50:01.631Z,4.10
2017-06-18T23:52:29.102Z,3.90
2017-06-18T23:54:56.568Z,3.70
2017-06-18T23:57:24.790Z,4.20
2017-06-18T23:59:52.245Z,4.10
